KCPU

Calaveras Co-Maury Rasmussen Field Airport

San Andreas, California, USA
METAR KCPU 151910Z AUTO 23005KT 7SM SCT014 BKN026 OVC048 05/03 A3000 RMK AO2 T00480027
Observed Flight Rules
Feb-15 @ 19:10 UTC (38 minutes ago) Marginal Visual Flight Rules
Wind Visibility Clouds
230° at 5 knots 7 miles
  • Scattered at 1,400' AGL
  • Broken at 2,600' AGL
  • Overcast at 4,800' AGL
Temperatures Readings
Current 5°C / 41°F
Dewpoint 3°C / 37°F
Humidity 87%
Altimeter 30" Hg
Pressure 1015.92 hPa
Elevation 404
METAR KCPU 151910Z AUTO 23005KT 7SM SCT014 BKN026 OVC048 05/03 A3000 RMK AO2 T00480027
Observed Flight Rules
Feb-15 @ 19:10 UTC
(38 minutes ago)
MVFR
Wind Visibility
230° at 5 knots 7 miles
Clouds
  • Scattered at 1,400' AGL
  • Broken at 2,600' AGL
  • Overcast at 4,800' AGL
Temperature Dewpoint
5°C / 41°F 3°C / 37°F
Humidity Altimeter Pressure
87% 30" Hg 1015.92 hPa